PDT,Max TemperatureF,Mean TemperatureF,Min TemperatureF,Max Dew PointF,MeanDew PointF,Min DewpointF,Max Humidity, Mean Humidity, Min Humidity, Max Sea Level PressureIn, Mean Sea Level PressureIn, Min Sea Level PressureIn, Max VisibilityMiles, Mean VisibilityMiles, Min VisibilityMiles, Max Wind SpeedMPH, Mean Wind SpeedMPH, Max Gust SpeedMPH,PrecipitationIn, CloudCover, Events, WindDirDegrees
2013-3-1,81,68,54,28,24,15,31,20,12,30.35,30.23,30.16,10,10,10,15,9,22,0.00,0,,352
2013-3-2,84,68,52,32,29,26,41,25,14,30.24,30.12,29.99,10,10,10,10,4,,0.00,0,,275
2013-3-3,80,68,57,36,30,27,37,26,14,29.97,29.86,29.75,10,10,10,18,6,17,0.00,0,,190
2013-3-4,79,70,57,37,33,25,39,27,18,29.99,29.89,29.79,10,10,10,15,10,23,0.00,0,,344
2013-3-5,78,65,52,37,33,29,45,31,20,30.06,29.96,29.87,10,10,10,13,5,17,0.00,0,,217
2013-3-6,79,68,57,38,31,17,46,27,11,29.95,29.84,29.78,10,10,10,16,8,22,0.00,0,,228
2013-3-7,70,60,50,38,34,32,52,36,25,29.88,29.81,29.75,10,10,10,15,5,22,0.00,0,,238
2013-3-8,61,54,48,47,41,33,82,62,36,29.89,29.77,29.69,10,9,1,30,11,38,0.25,6,Rain,225
2013-3-9,64,56,48,44,41,38,77,58,38,30.10,29.98,29.88,10,10,10,10,5,,0.00,4,,232
2013-3-10,72,61,50,43,29,18,77,34,13,30.23,30.15,30.09,10,10,10,29,12,34,0.00,0,,359
2013-3-11,80,64,48,32,26,19,50,27,11,30.16,30.07,29.97,10,10,10,16,6,,0.00,0,,324
2013-3-12,86,69,52,31,29,26,41,24,13,30.07,30.01,29.95,10,10,10,17,6,,0.00,0,,349
2013-3-13,91,72,55,36,32,28,42,24,11,30.10,30.03,29.96,10,10,10,10,6,,0.00,0,,322
2013-3-14,95,76,60,34,31,25,38,21,8,30.07,29.98,29.90,10,10,10,12,5,,0.00,0,,313
2013-3-15,93,76,59,36,33,28,41,23,10,29.94,29.84,29.74,10,10,10,13,3,,0.00,0,,191
2013-3-16,91,78,66,35,29,17,32,18,9,29.75,29.68,29.62,10,10,10,13,5,,0.00,0,,335
2013-3-17,90,76,63,29,18,5,26,12,4,29.81,29.72,29.63,10,10,10,14,7,,0.00,0,,290
2013-3-18,87,72,57,20,15,9,23,12,6,29.90,29.82,29.76,10,10,10,9,4,,0.00,0,,233
2013-3-19,88,74,62,27,21,18,24,14,8,29.92,29.86,29.78,10,10,10,12,4,,0.00,0,,335
2013-3-20,86,72,61,35,29,21,26,19,14,29.91,29.82,29.70,10,10,10,17,6,25,0.00,0,,251
2013-3-21,88,74,62,37,30,22,38,21,11,29.75,29.66,29.58,10,10,10,13,7,,0.00,0,,310
2013-3-22,84,70,57,24,10,-12,25,12,4,29.73,29.66,29.59,10,10,10,21,7,26,0.00,0,,9
2013-3-23,70,62,55,12,6,-2,18,11,6,30.06,29.95,29.74,10,10,10,28,14,36,0.00,0,,5
2013-3-24,80,65,50,15,9,3,17,12,6,30.04,29.94,29.84,10,10,10,14,7,,0.00,0,,340
2013-3-25,84,66,50,18,14,12,23,14,7,29.97,29.87,29.80,10,10,10,10,3,,0.00,0,,175
2013-3-26,90,76,62,22,17,9,18,12,5,29.81,29.74,29.67,10,10,10,17,4,26,0.00,0,,256
2013-3-27,88,74,62,31,27,23,27,18,11,29.82,29.77,29.72,10,10,10,15,5,25,0.00,0,,233
2013-3-28,88,72,59,37,33,30,41,23,13,29.93,29.87,29.81,10,10,10,10,4,20,0.00,0,,255
2013-3-29,90,76,62,34,31,27,34,20,12,30.00,29.93,29.87,10,10,10,12,5,,0.00,0,,232
2013-3-30,91,78,66,35,31,24,27,19,10,29.95,29.88,29.81,10,10,10,13,4,21,0.00,0,,256
2013-3-31,89,76,64,40,33,28,30,20,14,29.89,29.82,29.74,10,10,10,20,6,31,0.00,0,,223